sensor_id;sensor_type;location;lat;lon;timestamp;P1;durP1;ratioP1;P2;durP2;ratioP2
22922;SDS011;11627;51.322;22.816;2022-12-29T00:02:18;14.38;;;7.82;;
22922;SDS011;11627;51.322;22.816;2022-12-29T00:04:43;13.07;;;7.38;;
22922;SDS011;11627;51.322;22.816;2022-12-29T00:07:10;13.50;;;7.43;;
22922;SDS011;11627;51.322;22.816;2022-12-29T00:09:36;12.13;;;6.82;;
22922;SDS011;11627;51.322;22.816;2022-12-29T00:12:03;14.18;;;7.13;;
22922;SDS011;11627;51.322;22.816;2022-12-29T00:14:30;11.70;;;6.78;;
22922;SDS011;11627;51.322;22.816;2022-12-29T00:17:14;15.18;;;7.00;;
22922;SDS011;11627;51.322;22.816;2022-12-29T00:19:41;13.07;;;6.93;;
22922;SDS011;11627;51.322;22.816;2022-12-29T00:22:25;12.73;;;7.03;;
22922;SDS011;11627;51.322;22.816;2022-12-29T00:25:10;17.20;;;7.78;;
22922;SDS011;11627;51.322;22.816;2022-12-29T00:27:55;13.18;;;7.18;;
22922;SDS011;11627;51.322;22.816;2022-12-29T00:30:41;14.93;;;7.50;;
22922;SDS011;11627;51.322;22.816;2022-12-29T00:33:28;12.63;;;7.18;;
22922;SDS011;11627;51.322;22.816;2022-12-29T00:36:24;14.23;;;7.20;;
22922;SDS011;11627;51.322;22.816;2022-12-29T00:38:53;12.43;;;7.28;;
22922;SDS011;11627;51.322;22.816;2022-12-29T00:41:44;12.77;;;7.00;;
22922;SDS011;11627;51.322;22.816;2022-12-29T00:44:28;13.77;;;7.38;;
22922;SDS011;11627;51.322;22.816;2022-12-29T00:46:54;11.98;;;6.97;;
22922;SDS011;11627;51.322;22.816;2022-12-29T00:49:20;12.90;;;7.20;;
22922;SDS011;11627;51.322;22.816;2022-12-29T00:51:59;14.13;;;7.72;;
22922;SDS011;11627;51.322;22.816;2022-12-29T00:54:25;12.48;;;7.30;;
22922;SDS011;11627;51.322;22.816;2022-12-29T00:56:53;14.38;;;7.32;;
22922;SDS011;11627;51.322;22.816;2022-12-29T00:59:19;15.07;;;7.70;;
22922;SDS011;11627;51.322;22.816;2022-12-29T01:01:45;13.57;;;7.22;;
22922;SDS011;11627;51.322;22.816;2022-12-29T01:04:12;15.95;;;7.95;;
22922;SDS011;11627;51.322;22.816;2022-12-29T01:06:39;12.25;;;7.43;;
22922;SDS011;11627;51.322;22.816;2022-12-29T01:09:05;12.40;;;7.50;;
22922;SDS011;11627;51.322;22.816;2022-12-29T01:11:51;16.55;;;7.47;;
22922;SDS011;11627;51.322;22.816;2022-12-29T01:14:18;15.38;;;8.25;;
22922;SDS011;11627;51.322;22.816;2022-12-29T01:16:44;17.85;;;7.82;;
22922;SDS011;11627;51.322;22.816;2022-12-29T01:19:12;14.57;;;6.90;;
22922;SDS011;11627;51.322;22.816;2022-12-29T01:21:38;14.65;;;7.70;;
22922;SDS011;11627;51.322;22.816;2022-12-29T01:24:06;16.80;;;8.23;;
22922;SDS011;11627;51.322;22.816;2022-12-29T01:26:31;16.15;;;7.60;;
22922;SDS011;11627;51.322;22.816;2022-12-29T01:28:59;16.08;;;8.60;;
22922;SDS011;11627;51.322;22.816;2022-12-29T01:31:24;13.95;;;7.97;;
22922;SDS011;11627;51.322;22.816;2022-12-29T01:33:51;14.52;;;7.47;;
22922;SDS011;11627;51.322;22.816;2022-12-29T01:36:17;18.27;;;9.20;;
22922;SDS011;11627;51.322;22.816;2022-12-29T01:38:44;14.30;;;8.88;;
22922;SDS011;11627;51.322;22.816;2022-12-29T01:41:12;17.38;;;8.63;;
22922;SDS011;11627;51.322;22.816;2022-12-29T01:43:52;16.23;;;8.70;;
22922;SDS011;11627;51.322;22.816;2022-12-29T01:46:38;17.38;;;9.38;;
22922;SDS011;11627;51.322;22.816;2022-12-29T01:49:19;15.43;;;8.43;;
22922;SDS011;11627;51.322;22.816;2022-12-29T01:51:56;16.40;;;8.35;;
22922;SDS011;11627;51.322;22.816;2022-12-29T01:56:57;13.68;;;7.57;;
22922;SDS011;11627;51.322;22.816;2022-12-29T01:59:30;14.23;;;7.68;;
22922;SDS011;11627;51.322;22.816;2022-12-29T02:01:59;12.23;;;7.70;;
22922;SDS011;11627;51.322;22.816;2022-12-29T02:04:26;14.43;;;8.05;;
22922;SDS011;11627;51.322;22.816;2022-12-29T02:06:58;16.05;;;8.50;;
22922;SDS011;11627;51.322;22.816;2022-12-29T02:09:30;13.48;;;7.20;;
22922;SDS011;11627;51.322;22.816;2022-12-29T02:11:57;12.70;;;7.40;;
22922;SDS011;11627;51.322;22.816;2022-12-29T02:14:25;16.38;;;7.90;;
22922;SDS011;11627;51.322;22.816;2022-12-29T02:22:56;14.52;;;8.02;;
22922;SDS011;11627;51.322;22.816;2022-12-29T02:32:03;16.02;;;8.13;;
22922;SDS011;11627;51.322;22.816;2022-12-29T02:37:25;15.30;;;7.07;;
22922;SDS011;11627;51.322;22.816;2022-12-29T02:43:10;13.40;;;7.93;;
22922;SDS011;11627;51.322;22.816;2022-12-29T02:46:13;14.80;;;7.43;;
22922;SDS011;11627;51.322;22.816;2022-12-29T02:49:08;16.13;;;8.07;;
22922;SDS011;11627;51.322;22.816;2022-12-29T02:54:22;12.13;;;6.72;;
22922;SDS011;11627;51.322;22.816;2022-12-29T02:59:55;14.02;;;6.80;;
22922;SDS011;11627;51.322;22.816;2022-12-29T03:02:49;11.70;;;6.90;;
22922;SDS011;11627;51.322;22.816;2022-12-29T03:11:13;12.32;;;7.05;;
22922;SDS011;11627;51.322;22.816;2022-12-29T03:14:26;12.45;;;6.45;;
22922;SDS011;11627;51.322;22.816;2022-12-29T03:17:27;10.55;;;5.50;;
22922;SDS011;11627;51.322;22.816;2022-12-29T03:20:01;12.75;;;7.05;;
22922;SDS011;11627;51.322;22.816;2022-12-29T03:22:34;11.55;;;6.45;;
22922;SDS011;11627;51.322;22.816;2022-12-29T03:25:15;13.10;;;6.97;;
22922;SDS011;11627;51.322;22.816;2022-12-29T03:27:54;12.90;;;6.50;;
22922;SDS011;11627;51.322;22.816;2022-12-29T03:30:23;14.77;;;6.68;;
22922;SDS011;11627;51.322;22.816;2022-12-29T03:32:52;12.57;;;6.97;;
22922;SDS011;11627;51.322;22.816;2022-12-29T03:35:24;10.02;;;5.97;;
22922;SDS011;11627;51.322;22.816;2022-12-29T03:40:42;10.18;;;6.15;;
22922;SDS011;11627;51.322;22.816;2022-12-29T03:43:11;11.57;;;6.45;;
22922;SDS011;11627;51.322;22.816;2022-12-29T03:45:38;10.45;;;5.82;;
22922;SDS011;11627;51.322;22.816;2022-12-29T03:48:04;10.52;;;6.20;;
22922;SDS011;11627;51.322;22.816;2022-12-29T03:50:30;13.18;;;6.32;;
22922;SDS011;11627;51.322;22.816;2022-12-29T03:52:56;10.85;;;5.72;;
22922;SDS011;11627;51.322;22.816;2022-12-29T03:55:21;12.43;;;6.10;;
22922;SDS011;11627;51.322;22.816;2022-12-29T03:57:47;13.25;;;6.50;;
22922;SDS011;11627;51.322;22.816;2022-12-29T04:00:13;12.30;;;6.60;;
22922;SDS011;11627;51.322;22.816;2022-12-29T04:02:39;11.57;;;6.75;;
22922;SDS011;11627;51.322;22.816;2022-12-29T04:05:05;11.48;;;6.00;;
22922;SDS011;11627;51.322;22.816;2022-12-29T04:07:32;11.20;;;6.47;;
22922;SDS011;11627;51.322;22.816;2022-12-29T04:09:58;11.45;;;5.63;;
22922;SDS011;11627;51.322;22.816;2022-12-29T04:12:23;9.85;;;5.93;;
22922;SDS011;11627;51.322;22.816;2022-12-29T04:14:49;9.30;;;5.32;;
22922;SDS011;11627;51.322;22.816;2022-12-29T04:17:14;8.93;;;5.05;;
22922;SDS011;11627;51.322;22.816;2022-12-29T04:19:41;9.52;;;5.68;;
22922;SDS011;11627;51.322;22.816;2022-12-29T04:22:07;10.70;;;5.78;;
22922;SDS011;11627;51.322;22.816;2022-12-29T04:24:34;8.15;;;5.20;;
22922;SDS011;11627;51.322;22.816;2022-12-29T04:26:59;9.50;;;5.38;;
22922;SDS011;11627;51.322;22.816;2022-12-29T04:29:26;10.85;;;5.50;;
22922;SDS011;11627;51.322;22.816;2022-12-29T04:31:53;9.48;;;5.10;;
22922;SDS011;11627;51.322;22.816;2022-12-29T04:34:19;10.73;;;5.78;;
22922;SDS011;11627;51.322;22.816;2022-12-29T04:36:44;9.65;;;5.10;;
22922;SDS011;11627;51.322;22.816;2022-12-29T04:39:11;12.02;;;5.25;;
22922;SDS011;11627;51.322;22.816;2022-12-29T04:41:36;6.68;;;4.50;;
22922;SDS011;11627;51.322;22.816;2022-12-29T04:44:03;9.10;;;5.20;;
22922;SDS011;11627;51.322;22.816;2022-12-29T04:46:29;11.80;;;5.57;;
22922;SDS011;11627;51.322;22.816;2022-12-29T04:48:54;9.90;;;5.57;;
22922;SDS011;11627;51.322;22.816;2022-12-29T04:51:20;9.60;;;5.35;;
22922;SDS011;11627;51.322;22.816;2022-12-29T04:53:45;10.65;;;5.35;;
22922;SDS011;11627;51.322;22.816;2022-12-29T04:56:11;10.10;;;5.30;;
22922;SDS011;11627;51.322;22.816;2022-12-29T04:58:37;9.90;;;5.35;;
22922;SDS011;11627;51.322;22.816;2022-12-29T05:01:03;8.43;;;5.32;;
22922;SDS011;11627;51.322;22.816;2022-12-29T05:03:29;11.70;;;5.60;;
22922;SDS011;11627;51.322;22.816;2022-12-29T05:05:55;11.88;;;5.10;;
22922;SDS011;11627;51.322;22.816;2022-12-29T05:08:22;11.77;;;5.35;;
22922;SDS011;11627;51.322;22.816;2022-12-29T05:10:49;14.20;;;5.03;;
22922;SDS011;11627;51.322;22.816;2022-12-29T05:13:17;8.52;;;4.90;;
22922;SDS011;11627;51.322;22.816;2022-12-29T05:15:53;10.75;;;4.88;;
22922;SDS011;11627;51.322;22.816;2022-12-29T05:18:20;8.43;;;4.90;;
22922;SDS011;11627;51.322;22.816;2022-12-29T05:20:47;11.13;;;5.72;;
22922;SDS011;11627;51.322;22.816;2022-12-29T05:23:13;10.68;;;5.32;;
22922;SDS011;11627;51.322;22.816;2022-12-29T05:25:40;9.80;;;4.60;;
22922;SDS011;11627;51.322;22.816;2022-12-29T05:28:08;9.52;;;4.70;;
22922;SDS011;11627;51.322;22.816;2022-12-29T05:30:34;8.45;;;4.57;;
22922;SDS011;11627;51.322;22.816;2022-12-29T05:33:00;8.93;;;4.57;;
22922;SDS011;11627;51.322;22.816;2022-12-29T05:35:26;10.43;;;5.00;;
22922;SDS011;11627;51.322;22.816;2022-12-29T05:37:52;9.35;;;4.95;;
22922;SDS011;11627;51.322;22.816;2022-12-29T05:40:18;10.57;;;4.85;;
22922;SDS011;11627;51.322;22.816;2022-12-29T05:42:43;8.23;;;4.70;;
22922;SDS011;11627;51.322;22.816;2022-12-29T05:45:09;9.30;;;4.70;;
22922;SDS011;11627;51.322;22.816;2022-12-29T05:47:35;8.90;;;4.30;;
22922;SDS011;11627;51.322;22.816;2022-12-29T05:50:01;9.88;;;4.43;;
22922;SDS011;11627;51.322;22.816;2022-12-29T05:52:29;7.35;;;4.90;;
22922;SDS011;11627;51.322;22.816;2022-12-29T05:54:55;7.22;;;4.65;;
22922;SDS011;11627;51.322;22.816;2022-12-29T05:57:20;8.90;;;4.43;;
22922;SDS011;11627;51.322;22.816;2022-12-29T05:59:47;10.18;;;5.15;;
22922;SDS011;11627;51.322;22.816;2022-12-29T06:02:13;10.40;;;4.70;;
22922;SDS011;11627;51.322;22.816;2022-12-29T06:04:41;7.45;;;4.63;;
22922;SDS011;11627;51.322;22.816;2022-12-29T06:07:07;10.02;;;4.72;;
22922;SDS011;11627;51.322;22.816;2022-12-29T06:09:32;12.32;;;4.90;;
22922;SDS011;11627;51.322;22.816;2022-12-29T06:11:58;10.10;;;4.78;;
22922;SDS011;11627;51.322;22.816;2022-12-29T06:14:23;8.25;;;4.40;;
22922;SDS011;11627;51.322;22.816;2022-12-29T06:16:49;10.90;;;4.28;;
22922;SDS011;11627;51.322;22.816;2022-12-29T06:19:14;9.65;;;4.45;;
22922;SDS011;11627;51.322;22.816;2022-12-29T06:21:40;9.23;;;4.20;;
22922;SDS011;11627;51.322;22.816;2022-12-29T06:24:05;10.18;;;4.47;;
22922;SDS011;11627;51.322;22.816;2022-12-29T06:26:34;12.55;;;4.80;;
22922;SDS011;11627;51.322;22.816;2022-12-29T06:28:59;7.90;;;4.57;;
22922;SDS011;11627;51.322;22.816;2022-12-29T06:31:26;12.45;;;5.07;;
22922;SDS011;11627;51.322;22.816;2022-12-29T06:33:53;10.77;;;5.28;;
22922;SDS011;11627;51.322;22.816;2022-12-29T06:36:20;7.88;;;4.40;;
22922;SDS011;11627;51.322;22.816;2022-12-29T06:38:45;8.00;;;4.30;;
22922;SDS011;11627;51.322;22.816;2022-12-29T06:41:11;10.80;;;4.32;;
22922;SDS011;11627;51.322;22.816;2022-12-29T06:43:36;11.20;;;4.43;;
22922;SDS011;11627;51.322;22.816;2022-12-29T06:46:04;7.30;;;3.92;;
22922;SDS011;11627;51.322;22.816;2022-12-29T06:48:30;7.20;;;3.88;;
22922;SDS011;11627;51.322;22.816;2022-12-29T06:50:56;7.90;;;4.00;;
22922;SDS011;11627;51.322;22.816;2022-12-29T06:53:21;8.13;;;3.70;;
22922;SDS011;11627;51.322;22.816;2022-12-29T06:55:47;6.18;;;3.65;;
22922;SDS011;11627;51.322;22.816;2022-12-29T06:58:12;8.63;;;4.22;;
22922;SDS011;11627;51.322;22.816;2022-12-29T07:00:38;8.50;;;4.30;;
22922;SDS011;11627;51.322;22.816;2022-12-29T07:03:04;6.05;;;3.78;;
22922;SDS011;11627;51.322;22.816;2022-12-29T07:05:30;9.52;;;4.05;;
22922;SDS011;11627;51.322;22.816;2022-12-29T07:07:58;7.50;;;3.90;;
22922;SDS011;11627;51.322;22.816;2022-12-29T07:10:24;7.45;;;3.83;;
22922;SDS011;11627;51.322;22.816;2022-12-29T07:12:50;8.30;;;3.60;;
22922;SDS011;11627;51.322;22.816;2022-12-29T07:15:16;7.15;;;3.85;;
22922;SDS011;11627;51.322;22.816;2022-12-29T07:17:42;7.95;;;3.63;;
22922;SDS011;11627;51.322;22.816;2022-12-29T07:20:08;5.20;;;3.30;;
22922;SDS011;11627;51.322;22.816;2022-12-29T07:22:34;6.90;;;3.88;;
22922;SDS011;11627;51.322;22.816;2022-12-29T07:25:00;7.57;;;3.70;;
22922;SDS011;11627;51.322;22.816;2022-12-29T07:27:25;11.70;;;4.93;;
22922;SDS011;11627;51.322;22.816;2022-12-29T07:29:52;7.25;;;4.00;;
22922;SDS011;11627;51.322;22.816;2022-12-29T07:32:17;8.35;;;3.95;;
22922;SDS011;11627;51.322;22.816;2022-12-29T07:34:43;9.50;;;4.10;;
22922;SDS011;11627;51.322;22.816;2022-12-29T07:37:14;6.35;;;3.15;;
22922;SDS011;11627;51.322;22.816;2022-12-29T07:39:40;6.68;;;3.50;;
22922;SDS011;11627;51.322;22.816;2022-12-29T07:42:05;7.82;;;3.55;;
22922;SDS011;11627;51.322;22.816;2022-12-29T07:44:31;7.85;;;3.60;;
22922;SDS011;11627;51.322;22.816;2022-12-29T07:46:58;6.38;;;3.65;;
22922;SDS011;11627;51.322;22.816;2022-12-29T07:49:23;7.72;;;4.15;;
22922;SDS011;11627;51.322;22.816;2022-12-29T07:51:49;7.72;;;4.00;;
22922;SDS011;11627;51.322;22.816;2022-12-29T07:54:14;6.97;;;3.60;;
22922;SDS011;11627;51.322;22.816;2022-12-29T07:56:43;9.32;;;4.00;;
22922;SDS011;11627;51.322;22.816;2022-12-29T07:59:09;6.00;;;3.40;;
22922;SDS011;11627;51.322;22.816;2022-12-29T08:01:34;6.60;;;3.75;;
22922;SDS011;11627;51.322;22.816;2022-12-29T08:04:00;6.90;;;3.50;;
22922;SDS011;11627;51.322;22.816;2022-12-29T08:06:27;5.57;;;3.70;;
22922;SDS011;11627;51.322;22.816;2022-12-29T08:08:54;8.52;;;3.78;;
22922;SDS011;11627;51.322;22.816;2022-12-29T08:11:21;8.95;;;3.97;;
22922;SDS011;11627;51.322;22.816;2022-12-29T08:13:47;6.28;;;3.70;;
22922;SDS011;11627;51.322;22.816;2022-12-29T08:16:12;10.32;;;5.38;;
22922;SDS011;11627;51.322;22.816;2022-12-29T08:18:38;10.20;;;4.32;;
22922;SDS011;11627;51.322;22.816;2022-12-29T08:21:03;9.55;;;4.88;;
22922;SDS011;11627;51.322;22.816;2022-12-29T08:23:30;7.60;;;3.85;;
22922;SDS011;11627;51.322;22.816;2022-12-29T08:25:58;6.82;;;3.58;;
22922;SDS011;11627;51.322;22.816;2022-12-29T08:28:26;8.05;;;4.25;;
22922;SDS011;11627;51.322;22.816;2022-12-29T08:30:53;6.97;;;4.10;;
22922;SDS011;11627;51.322;22.816;2022-12-29T08:33:19;10.05;;;4.70;;
22922;SDS011;11627;51.322;22.816;2022-12-29T08:35:44;6.20;;;3.55;;
22922;SDS011;11627;51.322;22.816;2022-12-29T08:38:10;22.55;;;8.43;;
22922;SDS011;11627;51.322;22.816;2022-12-29T08:40:36;9.02;;;4.38;;
22922;SDS011;11627;51.322;22.816;2022-12-29T08:43:02;8.60;;;3.83;;
22922;SDS011;11627;51.322;22.816;2022-12-29T08:45:29;8.35;;;4.15;;
22922;SDS011;11627;51.322;22.816;2022-12-29T08:47:54;11.50;;;4.30;;
22922;SDS011;11627;51.322;22.816;2022-12-29T08:50:20;9.30;;;4.50;;
22922;SDS011;11627;51.322;22.816;2022-12-29T08:52:46;8.82;;;4.15;;
22922;SDS011;11627;51.322;22.816;2022-12-29T08:55:11;8.98;;;3.85;;
22922;SDS011;11627;51.322;22.816;2022-12-29T08:57:37;7.38;;;3.90;;
22922;SDS011;11627;51.322;22.816;2022-12-29T09:00:03;9.55;;;4.28;;
22922;SDS011;11627;51.322;22.816;2022-12-29T09:02:30;12.25;;;4.40;;
22922;SDS011;11627;51.322;22.816;2022-12-29T09:04:55;12.20;;;5.25;;
22922;SDS011;11627;51.322;22.816;2022-12-29T09:07:22;5.38;;;3.65;;
22922;SDS011;11627;51.322;22.816;2022-12-29T09:09:48;9.10;;;3.92;;
22922;SDS011;11627;51.322;22.816;2022-12-29T09:12:15;8.77;;;4.50;;
22922;SDS011;11627;51.322;22.816;2022-12-29T09:14:42;7.50;;;4.07;;
22922;SDS011;11627;51.322;22.816;2022-12-29T09:17:09;9.40;;;4.97;;
22922;SDS011;11627;51.322;22.816;2022-12-29T09:19:54;7.05;;;4.18;;
22922;SDS011;11627;51.322;22.816;2022-12-29T09:22:20;13.63;;;4.55;;
22922;SDS011;11627;51.322;22.816;2022-12-29T09:24:46;8.00;;;4.10;;
22922;SDS011;11627;51.322;22.816;2022-12-29T09:27:13;10.45;;;4.68;;
22922;SDS011;11627;51.322;22.816;2022-12-29T09:29:40;8.68;;;4.75;;
22922;SDS011;11627;51.322;22.816;2022-12-29T09:32:05;9.88;;;4.65;;
22922;SDS011;11627;51.322;22.816;2022-12-29T09:34:32;12.30;;;4.57;;
22922;SDS011;11627;51.322;22.816;2022-12-29T09:36:57;10.63;;;5.15;;
22922;SDS011;11627;51.322;22.816;2022-12-29T09:39:23;8.23;;;4.15;;
22922;SDS011;11627;51.322;22.816;2022-12-29T09:44:39;13.35;;;4.65;;
22922;SDS011;11627;51.322;22.816;2022-12-29T09:47:17;10.30;;;4.35;;
22922;SDS011;11627;51.322;22.816;2022-12-29T09:49:49;10.90;;;4.35;;
22922;SDS011;11627;51.322;22.816;2022-12-29T09:52:21;8.27;;;4.57;;
22922;SDS011;11627;51.322;22.816;2022-12-29T09:55:15;9.75;;;4.72;;
22922;SDS011;11627;51.322;22.816;2022-12-29T09:57:48;9.25;;;4.72;;
22922;SDS011;11627;51.322;22.816;2022-12-29T10:00:36;7.60;;;4.80;;
22922;SDS011;11627;51.322;22.816;2022-12-29T10:03:09;8.60;;;4.18;;
22922;SDS011;11627;51.322;22.816;2022-12-29T10:08:48;8.00;;;4.60;;
22922;SDS011;11627;51.322;22.816;2022-12-29T10:25:28;7.88;;;4.25;;
22922;SDS011;11627;51.322;22.816;2022-12-29T10:27:59;8.65;;;4.20;;
22922;SDS011;11627;51.322;22.816;2022-12-29T10:30:31;12.95;;;4.72;;
22922;SDS011;11627;51.322;22.816;2022-12-29T10:33:01;8.60;;;4.65;;
22922;SDS011;11627;51.322;22.816;2022-12-29T10:35:36;9.13;;;4.25;;
22922;SDS011;11627;51.322;22.816;2022-12-29T10:38:28;8.65;;;4.80;;
22922;SDS011;11627;51.322;22.816;2022-12-29T10:41:25;8.27;;;4.10;;
22922;SDS011;11627;51.322;22.816;2022-12-29T10:44:14;9.38;;;4.90;;
22922;SDS011;11627;51.322;22.816;2022-12-29T10:46:44;8.90;;;4.72;;
22922;SDS011;11627;51.322;22.816;2022-12-29T10:49:25;10.95;;;5.25;;
22922;SDS011;11627;51.322;22.816;2022-12-29T10:51:55;10.05;;;4.57;;
22922;SDS011;11627;51.322;22.816;2022-12-29T10:54:39;8.23;;;4.63;;
22922;SDS011;11627;51.322;22.816;2022-12-29T10:59:53;10.60;;;4.78;;
22922;SDS011;11627;51.322;22.816;2022-12-29T11:07:58;9.15;;;4.85;;
22922;SDS011;11627;51.322;22.816;2022-12-29T11:13:01;9.57;;;5.28;;
22922;SDS011;11627;51.322;22.816;2022-12-29T11:15:40;9.43;;;4.70;;
22922;SDS011;11627;51.322;22.816;2022-12-29T11:18:30;9.85;;;5.30;;
22922;SDS011;11627;51.322;22.816;2022-12-29T11:21:01;10.35;;;5.75;;
22922;SDS011;11627;51.322;22.816;2022-12-29T11:26:15;10.70;;;5.10;;
22922;SDS011;11627;51.322;22.816;2022-12-29T11:29:03;9.82;;;4.82;;
22922;SDS011;11627;51.322;22.816;2022-12-29T11:31:39;10.93;;;5.18;;
22922;SDS011;11627;51.322;22.816;2022-12-29T11:34:16;10.32;;;5.10;;
22922;SDS011;11627;51.322;22.816;2022-12-29T11:36:44;11.65;;;5.15;;
22922;SDS011;11627;51.322;22.816;2022-12-29T11:41:56;6.70;;;4.40;;
22922;SDS011;11627;51.322;22.816;2022-12-29T11:44:23;10.75;;;4.95;;
22922;SDS011;11627;51.322;22.816;2022-12-29T11:46:50;8.85;;;5.38;;
22922;SDS011;11627;51.322;22.816;2022-12-29T11:49:23;9.85;;;5.07;;
22922;SDS011;11627;51.322;22.816;2022-12-29T11:51:52;10.07;;;5.03;;
22922;SDS011;11627;51.322;22.816;2022-12-29T11:54:29;10.32;;;5.00;;
22922;SDS011;11627;51.322;22.816;2022-12-29T11:56:58;11.35;;;5.20;;
22922;SDS011;11627;51.322;22.816;2022-12-29T12:02:30;9.15;;;5.10;;
22922;SDS011;11627;51.322;22.816;2022-12-29T12:05:11;9.95;;;5.60;;
22922;SDS011;11627;51.322;22.816;2022-12-29T12:08:09;10.88;;;4.95;;
22922;SDS011;11627;51.322;22.816;2022-12-29T12:10:36;9.57;;;4.90;;
22922;SDS011;11627;51.322;22.816;2022-12-29T12:13:19;8.40;;;5.07;;
22922;SDS011;11627;51.322;22.816;2022-12-29T12:16:02;10.45;;;4.90;;
22922;SDS011;11627;51.322;22.816;2022-12-29T12:18:48;8.38;;;4.45;;
22922;SDS011;11627;51.322;22.816;2022-12-29T12:21:40;10.73;;;4.88;;
22922;SDS011;11627;51.322;22.816;2022-12-29T12:29:56;13.73;;;5.15;;
22922;SDS011;11627;51.322;22.816;2022-12-29T12:38:23;8.80;;;4.90;;
22922;SDS011;11627;51.322;22.816;2022-12-29T13:20:15;14.48;;;6.15;;
22922;SDS011;11627;51.322;22.816;2022-12-29T13:28:57;14.93;;;7.30;;
22922;SDS011;11627;51.322;22.816;2022-12-29T13:34:37;14.48;;;7.40;;
22922;SDS011;11627;51.322;22.816;2022-12-29T13:37:30;11.60;;;6.25;;
22922;SDS011;11627;51.322;22.816;2022-12-29T13:39:58;13.55;;;6.72;;
22922;SDS011;11627;51.322;22.816;2022-12-29T13:42:36;13.02;;;6.80;;
22922;SDS011;11627;51.322;22.816;2022-12-29T13:45:02;13.25;;;6.88;;
22922;SDS011;11627;51.322;22.816;2022-12-29T13:47:44;13.52;;;6.90;;
22922;SDS011;11627;51.322;22.816;2022-12-29T13:50:19;14.05;;;7.07;;
22922;SDS011;11627;51.322;22.816;2022-12-29T13:55:47;15.45;;;6.38;;
22922;SDS011;11627;51.322;22.816;2022-12-29T14:03:52;17.27;;;7.18;;
22922;SDS011;11627;51.322;22.816;2022-12-29T14:06:30;12.82;;;6.57;;
22922;SDS011;11627;51.322;22.816;2022-12-29T14:09:00;17.45;;;6.82;;
22922;SDS011;11627;51.322;22.816;2022-12-29T14:11:30;12.88;;;6.30;;
22922;SDS011;11627;51.322;22.816;2022-12-29T14:13:59;15.50;;;7.03;;
22922;SDS011;11627;51.322;22.816;2022-12-29T14:16:44;15.43;;;6.60;;
22922;SDS011;11627;51.322;22.816;2022-12-29T14:19:22;14.05;;;6.80;;
22922;SDS011;11627;51.322;22.816;2022-12-29T14:21:57;12.50;;;7.03;;
22922;SDS011;11627;51.322;22.816;2022-12-29T14:24:26;13.20;;;7.28;;
22922;SDS011;11627;51.322;22.816;2022-12-29T14:26:52;17.52;;;8.07;;
22922;SDS011;11627;51.322;22.816;2022-12-29T14:31:55;16.30;;;7.97;;
22922;SDS011;11627;51.322;22.816;2022-12-29T14:34:27;21.88;;;9.27;;
22922;SDS011;11627;51.322;22.816;2022-12-29T14:37:01;20.48;;;8.82;;
22922;SDS011;11627;51.322;22.816;2022-12-29T14:39:40;18.58;;;7.95;;
22922;SDS011;11627;51.322;22.816;2022-12-29T14:45:05;14.32;;;6.95;;
22922;SDS011;11627;51.322;22.816;2022-12-29T14:47:37;14.13;;;7.50;;
22922;SDS011;11627;51.322;22.816;2022-12-29T14:52:31;13.13;;;7.32;;
22922;SDS011;11627;51.322;22.816;2022-12-29T14:57:33;14.35;;;7.38;;
22922;SDS011;11627;51.322;22.816;2022-12-29T15:00:14;13.27;;;7.15;;
22922;SDS011;11627;51.322;22.816;2022-12-29T15:03:02;12.98;;;7.43;;
22922;SDS011;11627;51.322;22.816;2022-12-29T15:08:21;13.57;;;7.10;;
22922;SDS011;11627;51.322;22.816;2022-12-29T15:10:55;14.35;;;7.47;;
22922;SDS011;11627;51.322;22.816;2022-12-29T15:13:34;13.43;;;7.15;;
22922;SDS011;11627;51.322;22.816;2022-12-29T15:16:01;15.93;;;7.63;;
22922;SDS011;11627;51.322;22.816;2022-12-29T15:18:29;18.17;;;7.95;;
22922;SDS011;11627;51.322;22.816;2022-12-29T15:21:00;14.77;;;7.55;;
22922;SDS011;11627;51.322;22.816;2022-12-29T15:23:29;14.18;;;7.07;;
22922;SDS011;11627;51.322;22.816;2022-12-29T15:28:51;16.00;;;7.30;;
22922;SDS011;11627;51.322;22.816;2022-12-29T15:31:19;17.80;;;7.60;;
22922;SDS011;11627;51.322;22.816;2022-12-29T15:33:50;17.13;;;7.53;;
22922;SDS011;11627;51.322;22.816;2022-12-29T15:39:17;16.83;;;8.05;;
22922;SDS011;11627;51.322;22.816;2022-12-29T15:41:47;18.42;;;8.05;;
22922;SDS011;11627;51.322;22.816;2022-12-29T15:44:39;15.13;;;8.15;;
22922;SDS011;11627;51.322;22.816;2022-12-29T15:47:20;14.68;;;7.47;;
22922;SDS011;11627;51.322;22.816;2022-12-29T15:49:50;17.83;;;8.25;;
22922;SDS011;11627;51.322;22.816;2022-12-29T15:52:21;16.02;;;7.85;;
22922;SDS011;11627;51.322;22.816;2022-12-29T15:54:51;14.80;;;7.57;;
22922;SDS011;11627;51.322;22.816;2022-12-29T15:57:28;16.60;;;8.70;;
22922;SDS011;11627;51.322;22.816;2022-12-29T15:59:57;16.88;;;8.50;;
22922;SDS011;11627;51.322;22.816;2022-12-29T16:02:24;16.50;;;8.52;;
22922;SDS011;11627;51.322;22.816;2022-12-29T16:04:50;18.02;;;9.40;;
22922;SDS011;11627;51.322;22.816;2022-12-29T16:07:27;18.48;;;8.90;;
22922;SDS011;11627;51.322;22.816;2022-12-29T16:09:56;19.85;;;9.10;;
22922;SDS011;11627;51.322;22.816;2022-12-29T16:12:42;18.17;;;9.48;;
22922;SDS011;11627;51.322;22.816;2022-12-29T16:15:11;23.30;;;9.15;;
22922;SDS011;11627;51.322;22.816;2022-12-29T16:17:50;19.50;;;8.93;;
22922;SDS011;11627;51.322;22.816;2022-12-29T16:22:46;22.67;;;10.43;;
22922;SDS011;11627;51.322;22.816;2022-12-29T16:27:56;21.92;;;9.88;;
22922;SDS011;11627;51.322;22.816;2022-12-29T16:30:41;21.48;;;9.52;;
22922;SDS011;11627;51.322;22.816;2022-12-29T16:33:28;23.08;;;9.63;;
22922;SDS011;11627;51.322;22.816;2022-12-29T16:35:59;21.23;;;10.20;;
22922;SDS011;11627;51.322;22.816;2022-12-29T16:38:30;20.25;;;9.38;;
22922;SDS011;11627;51.322;22.816;2022-12-29T16:41:02;20.88;;;9.35;;
22922;SDS011;11627;51.322;22.816;2022-12-29T16:46:21;19.60;;;9.25;;
22922;SDS011;11627;51.322;22.816;2022-12-29T16:48:52;16.58;;;9.00;;
22922;SDS011;11627;51.322;22.816;2022-12-29T16:51:38;19.08;;;9.45;;
22922;SDS011;11627;51.322;22.816;2022-12-29T16:54:05;19.00;;;8.57;;
22922;SDS011;11627;51.322;22.816;2022-12-29T16:56:33;16.80;;;9.32;;
22922;SDS011;11627;51.322;22.816;2022-12-29T16:59:02;19.10;;;8.27;;
22922;SDS011;11627;51.322;22.816;2022-12-29T17:01:37;18.15;;;8.30;;
22922;SDS011;11627;51.322;22.816;2022-12-29T17:04:05;14.82;;;7.85;;
22922;SDS011;11627;51.322;22.816;2022-12-29T17:06:32;18.40;;;9.50;;
22922;SDS011;11627;51.322;22.816;2022-12-29T17:08:58;23.98;;;11.35;;
22922;SDS011;11627;51.322;22.816;2022-12-29T17:11:27;26.58;;;12.40;;
22922;SDS011;11627;51.322;22.816;2022-12-29T17:14:26;18.88;;;9.82;;
22922;SDS011;11627;51.322;22.816;2022-12-29T17:17:09;21.70;;;8.82;;
22922;SDS011;11627;51.322;22.816;2022-12-29T17:19:55;18.25;;;8.68;;
22922;SDS011;11627;51.322;22.816;2022-12-29T17:22:28;18.73;;;9.00;;
22922;SDS011;11627;51.322;22.816;2022-12-29T17:24:57;16.75;;;8.40;;
22922;SDS011;11627;51.322;22.816;2022-12-29T17:30:04;20.40;;;9.25;;
22922;SDS011;11627;51.322;22.816;2022-12-29T17:32:55;20.05;;;9.57;;
22922;SDS011;11627;51.322;22.816;2022-12-29T17:35:30;20.38;;;9.27;;
22922;SDS011;11627;51.322;22.816;2022-12-29T17:37:55;18.75;;;9.68;;
22922;SDS011;11627;51.322;22.816;2022-12-29T17:40:26;19.20;;;8.70;;
22922;SDS011;11627;51.322;22.816;2022-12-29T17:42:55;17.98;;;8.73;;